Rose Creek, Minnesota
Current Conditions -  °F | °C
As of 6:56 AM on Saturday 20 Dec 2014 (Local Time) from KAUM Reporting Station
Haze Haze  
Wind Chill: 20°   Ceiling: 200
Heat Index: 27°   Visibility: 0.75mi
Dew Point: 27°   Wind: 6mph
Humidity: 100%   Direction: 170°S
Pressure: 30.16"   Gusts: NA
Location:  43.6°N, 92.83°W
Report Text: KAUM 201256Z AUTO 17005KT 3/4SM BR OVC002 M03/M03 A3016 RMK AO2
Loading
Personal Weather Stations






























Interactive Weather Map New forecast layout! Learn more

10-Day Weather Forecast

Advertisements
Track Severe Weather on mobile